Time;durP1;ratioP1;P1;durP2;ratioP2;P2;SDS_P1;SDS_P2;PMS_P1;PMS_P2;Temp;Humidity;BMP_temperature;BMP_pressure;BME280_temperature;BME280_humidity;BME280_pressure;Samples;Min_cycle;Max_cycle;Signal;HPM_P1;HPM_P2
2023/01/17 00:02:19;;;;;;;4.97;4.53;;;3.00;99.90;;;;;;5072649;28;20240;-83
2023/01/17 00:10:21;;;;;;;5.15;4.65;;;2.80;99.90;;;;;;5072597;28;20240;-84
2023/01/17 00:12:51;;;;;;;4.78;4.35;;;2.80;99.90;;;;;;5072406;28;20225;-83
2023/01/17 00:15:22;;;;;;;3.95;3.55;;;2.90;99.90;;;;;;5072586;28;20209;-84
2023/01/17 00:17:51;;;;;;;5.97;4.28;;;2.90;99.90;;;;;;5072156;28;20228;-83
2023/01/17 00:26:03;;;;;;;4.63;4.20;;;2.90;99.90;;;;;;5072859;28;20213;-84
2023/01/17 01:35:48;;;;;;;4.75;4.30;;;2.70;99.90;;;;;;5073298;28;20201;-84
2023/01/17 01:38:16;;;;;;;5.53;5.07;;;2.70;99.90;;;;;;5072748;28;20248;-83
2023/01/17 01:40:46;;;;;;;5.97;4.82;;;2.70;99.90;;;;;;5072926;28;20219;-84
2023/01/17 01:43:18;;;;;;;5.55;5.00;;;2.70;99.90;;;;;;5072989;28;20228;-84
2023/01/17 01:45:52;;;;;;;5.28;4.78;;;2.70;99.90;;;;;;5072860;28;20289;-83
2023/01/17 01:48:34;;;;;;;7.35;5.75;;;2.70;99.90;;;;;;5073149;28;20197;-84
2023/01/17 01:51:07;;;;;;;9.15;4.47;;;2.70;99.90;;;;;;5072673;28;20201;-83
2023/01/17 01:53:40;;;;;;;8.02;4.72;;;2.80;99.90;;;;;;5072632;28;20228;-84
2023/01/17 01:56:11;;;;;;;4.72;4.15;;;2.80;99.90;;;;;;5072908;28;20225;-84
2023/01/17 01:58:41;;;;;;;4.95;4.47;;;2.80;99.90;;;;;;5072425;28;20217;-84
2023/01/17 02:01:10;;;;;;;5.35;4.60;;;2.80;99.90;;;;;;5073223;28;20227;-82
2023/01/17 02:03:42;;;;;;;5.55;4.93;;;2.80;99.90;;;;;;5072404;28;20229;-83
2023/01/17 02:06:22;;;;;;;4.68;4.28;;;2.90;99.90;;;;;;5072984;28;20236;-83
2023/01/17 02:08:52;;;;;;;5.80;4.45;;;2.90;99.90;;;;;;5072704;28;20212;-84
2023/01/17 02:11:21;;;;;;;4.60;4.20;;;3.00;99.90;;;;;;5072841;28;20208;-83
2023/01/17 02:13:49;;;;;;;5.43;4.93;;;3.00;99.90;;;;;;5072667;28;20236;-84
2023/01/17 02:16:33;;;;;;;5.75;5.20;;;3.00;99.90;;;;;;5072999;28;20212;-85
2023/01/17 02:19:19;;;;;;;5.85;5.20;;;3.00;99.90;;;;;;5072100;28;20235;-84
2023/01/17 02:21:57;;;;;;;7.50;5.43;;;3.00;99.90;;;;;;5072805;28;20215;-84
2023/01/17 02:25:03;;;;;;;5.13;4.63;;;3.00;99.90;;;;;;5072708;28;20307;-84
2023/01/17 02:27:45;;;;;;;5.47;4.97;;;3.10;99.90;;;;;;5072628;28;20208;-84
2023/01/17 02:30:34;;;;;;;5.10;4.60;;;3.10;99.90;;;;;;5072577;28;20201;-84
2023/01/17 02:33:25;;;;;;;5.00;4.50;;;3.10;99.90;;;;;;5072629;28;20225;-85
2023/01/17 02:36:03;;;;;;;5.65;5.15;;;3.10;99.90;;;;;;5072457;28;20208;-84
2023/01/17 02:38:37;;;;;;;5.45;5.05;;;3.20;99.90;;;;;;5072288;28;20224;-84
2023/01/17 02:41:10;;;;;;;4.82;4.43;;;3.10;99.90;;;;;;5072615;28;20209;-83
2023/01/17 02:43:39;;;;;;;5.97;5.38;;;3.10;99.90;;;;;;5072372;28;20225;-83
2023/01/17 02:46:08;;;;;;;5.35;4.85;;;3.10;99.90;;;;;;5072084;28;20215;-84
2023/01/17 02:48:38;;;;;;;5.68;5.20;;;3.10;99.90;;;;;;5071885;28;20288;-84
2023/01/17 02:51:27;;;;;;;5.82;5.20;;;3.20;99.90;;;;;;5072314;28;20209;-83
2023/01/17 02:54:11;;;;;;;5.85;5.25;;;3.20;99.90;;;;;;5072631;28;20236;-84
2023/01/17 02:56:49;;;;;;;5.03;4.53;;;3.20;99.90;;;;;;5072402;28;20213;-84
2023/01/17 02:59:28;;;;;;;6.13;5.53;;;3.20;99.90;;;;;;5071943;28;20225;-84
2023/01/17 03:02:09;;;;;;;4.95;4.55;;;3.20;99.90;;;;;;5072736;28;20205;-84
2023/01/17 03:04:46;;;;;;;5.82;5.32;;;3.20;99.90;;;;;;5076345;28;20201;-84
2023/01/17 03:07:17;;;;;;;6.13;5.53;;;3.20;99.90;;;;;;5076001;28;20209;-84
2023/01/17 03:09:52;;;;;;;5.50;5.00;;;3.20;99.90;;;;;;5076018;28;20193;-83
2023/01/17 03:12:20;;;;;;;5.65;5.15;;;3.20;99.90;;;;;;5075708;28;20232;-82
2023/01/17 03:14:49;;;;;;;6.82;6.13;;;3.20;99.90;;;;;;5076102;28;20219;-83
2023/01/17 03:17:18;;;;;;;7.38;5.75;;;3.20;99.90;;;;;;5075482;28;20201;-83
2023/01/17 03:19:47;;;;;;;10.15;5.43;;;3.20;99.90;;;;;;5075609;28;20231;-83
2023/01/17 03:22:15;;;;;;;9.00;6.28;;;3.10;99.90;;;;;;5076019;28;20232;-84
2023/01/17 03:24:43;;;;;;;6.55;5.18;;;3.20;99.90;;;;;;5075615;28;20213;-83
2023/01/17 03:27:12;;;;;;;6.30;5.65;;;3.20;99.90;;;;;;5075437;28;20224;-83
2023/01/17 03:29:40;;;;;;;8.23;6.05;;;3.10;99.90;;;;;;5075407;28;20193;-83
2023/01/17 03:32:08;;;;;;;5.90;5.07;;;3.10;99.90;;;;;;5075821;28;20229;-83
2023/01/17 03:34:38;;;;;;;5.45;5.00;;;3.10;99.90;;;;;;5075563;28;20205;-83
2023/01/17 03:37:06;;;;;;;5.63;5.13;;;3.10;99.90;;;;;;5075180;28;20228;-84
2023/01/17 03:39:34;;;;;;;7.38;5.70;;;3.10;99.90;;;;;;5075969;28;20225;-84
2023/01/17 03:42:03;;;;;;;7.07;6.38;;;3.10;99.90;;;;;;5076098;28;20205;-84
2023/01/17 03:44:32;;;;;;;7.60;6.03;;;3.10;99.90;;;;;;5075733;28;20209;-84
2023/01/17 03:47:01;;;;;;;6.20;5.60;;;3.10;99.90;;;;;;5075350;28;20296;-84
2023/01/17 03:49:30;;;;;;;7.45;5.85;;;3.00;99.90;;;;;;5076059;28;20205;-84
2023/01/17 03:52:00;;;;;;;6.80;6.15;;;3.00;99.90;;;;;;5075503;28;20288;-84
2023/01/17 03:54:28;;;;;;;6.35;5.75;;;3.00;99.90;;;;;;5075298;28;20219;-84
2023/01/17 03:56:56;;;;;;;7.05;5.80;;;3.00;99.90;;;;;;5075299;28;20208;-84
2023/01/17 03:59:24;;;;;;;7.20;6.55;;;3.10;99.90;;;;;;5075224;28;20216;-83
2023/01/17 04:01:53;;;;;;;7.43;6.45;;;3.00;99.90;;;;;;5075410;28;20205;-83
2023/01/17 04:04:21;;;;;;;6.45;5.95;;;3.00;99.90;;;;;;5075461;28;20206;-83
2023/01/17 04:06:49;;;;;;;6.25;5.75;;;3.00;99.90;;;;;;5075429;28;20209;-83
2023/01/17 04:09:19;;;;;;;8.07;6.70;;;3.00;99.90;;;;;;5075220;28;20197;-85
2023/01/17 04:11:49;;;;;;;7.25;6.13;;;3.00;99.90;;;;;;5075176;28;20209;-84
2023/01/17 04:14:18;;;;;;;6.72;6.10;;;3.00;99.90;;;;;;5074843;28;20244;-84
2023/01/17 04:16:46;;;;;;;6.95;6.35;;;3.10;99.90;;;;;;5075111;28;20209;-83
2023/01/17 04:19:15;;;;;;;7.97;6.97;;;3.00;99.90;;;;;;5075259;28;20213;-84
2023/01/17 04:21:43;;;;;;;7.13;6.53;;;3.10;99.90;;;;;;5075160;28;20208;-84
2023/01/17 04:24:11;;;;;;;7.25;6.55;;;3.10;99.90;;;;;;5075282;28;20213;-84
2023/01/17 04:26:41;;;;;;;7.32;6.63;;;3.10;99.90;;;;;;5075024;28;20227;-84
2023/01/17 04:29:09;;;;;;;8.13;6.32;;;3.00;99.90;;;;;;5075290;28;20268;-84
2023/01/17 04:31:37;;;;;;;6.90;6.30;;;3.00;99.90;;;;;;5075522;28;20205;-84
2023/01/17 04:34:05;;;;;;;7.07;5.50;;;3.00;99.90;;;;;;5074713;28;20370;-85
2023/01/17 04:36:34;;;;;;;7.47;6.78;;;3.00;99.90;;;;;;5074721;28;20288;-85
2023/01/17 04:39:02;;;;;;;7.30;6.60;;;3.00;99.90;;;;;;5074346;28;20220;-85
2023/01/17 04:41:30;;;;;;;10.65;7.15;;;2.90;99.90;;;;;;5074470;28;20254;-84
2023/01/17 04:44:00;;;;;;;9.77;6.53;;;3.00;99.90;;;;;;5074500;28;20312;-85
2023/01/17 04:46:29;;;;;;;7.28;6.57;;;2.90;99.90;;;;;;5074964;28;20192;-85
2023/01/17 04:48:57;;;;;;;6.53;5.93;;;2.90;99.90;;;;;;5074302;28;20209;-85
2023/01/17 04:51:26;;;;;;;5.88;5.30;;;2.90;99.90;;;;;;5074627;28;20205;-85
2023/01/17 04:53:54;;;;;;;6.97;6.22;;;2.90;99.90;;;;;;5074356;28;20221;-85
2023/01/17 04:56:22;;;;;;;6.00;5.43;;;2.90;99.90;;;;;;5074322;28;20219;-84
2023/01/17 04:58:51;;;;;;;6.30;5.68;;;2.90;99.90;;;;;;5074316;28;20209;-83
2023/01/17 05:01:21;;;;;;;6.38;5.70;;;2.90;99.90;;;;;;5074296;28;20209;-84
2023/01/17 05:03:49;;;;;;;4.95;4.50;;;2.80;99.90;;;;;;5073963;28;20243;-84
2023/01/17 05:06:17;;;;;;;5.25;4.75;;;2.80;99.90;;;;;;5074409;28;20220;-83
2023/01/17 05:08:45;;;;;;;5.53;5.03;;;2.80;99.90;;;;;;5073638;28;20204;-84
2023/01/17 05:11:14;;;;;;;6.65;5.82;;;2.80;99.90;;;;;;5074478;28;20201;-84
2023/01/17 05:13:42;;;;;;;9.20;6.32;;;2.70;99.90;;;;;;5074243;28;20304;-84
2023/01/17 05:16:10;;;;;;;6.25;5.63;;;2.70;99.90;;;;;;5074334;28;20197;-83
2023/01/17 05:18:40;;;;;;;7.95;5.80;;;2.70;99.90;;;;;;5074424;28;20288;-84
2023/01/17 05:21:08;;;;;;;7.78;6.68;;;2.70;99.90;;;;;;5073618;28;20249;-84
2023/01/17 05:23:37;;;;;;;6.32;5.78;;;2.60;99.90;;;;;;5073710;28;20232;-84
2023/01/17 05:26:05;;;;;;;9.93;6.53;;;2.60;99.90;;;;;;5073418;28;20212;-84
2023/01/17 05:28:34;;;;;;;7.20;6.60;;;2.60;99.90;;;;;;5074015;28;20217;-84
2023/01/17 05:31:02;;;;;;;6.53;5.93;;;2.60;99.90;;;;;;5073819;28;20284;-84
2023/01/17 05:33:30;;;;;;;20.17;6.57;;;2.60;99.90;;;;;;5073817;28;20304;-85
2023/01/17 05:36:00;;;;;;;9.35;7.50;;;2.60;99.90;;;;;;5073964;28;20216;-85
2023/01/17 05:38:28;;;;;;;6.18;5.68;;;2.60;99.90;;;;;;5073580;28;20215;-86
2023/01/17 05:41:00;;;;;;;6.97;6.28;;;2.60;99.90;;;;;;5074080;28;20217;-83
2023/01/17 05:43:29;;;;;;;9.02;7.28;;;2.50;99.90;;;;;;5073243;28;20255;-85
2023/01/17 05:45:57;;;;;;;7.90;7.10;;;2.60;99.90;;;;;;5073816;28;20205;-84
2023/01/17 05:48:25;;;;;;;8.95;8.02;;;2.50;99.90;;;;;;5073180;28;20201;-83
2023/01/17 05:50:54;;;;;;;9.55;7.85;;;2.50;99.90;;;;;;5073517;28;20205;-84
2023/01/17 05:53:30;;;;;;;13.25;8.45;;;2.50;99.90;;;;;;5073540;28;20221;-84
2023/01/17 05:55:59;;;;;;;8.55;7.68;;;2.50;99.90;;;;;;5073533;28;20292;-83
2023/01/17 05:58:27;;;;;;;9.05;7.70;;;2.40;99.90;;;;;;5073331;28;20213;-84
2023/01/17 06:00:55;;;;;;;9.10;8.23;;;2.40;99.90;;;;;;5072980;28;20312;-83
2023/01/17 06:03:24;;;;;;;8.05;7.20;;;2.40;99.90;;;;;;5073095;28;20231;-84
2023/01/17 06:05:52;;;;;;;9.18;8.23;;;2.30;99.90;;;;;;5072983;28;20209;-84
2023/01/17 06:08:22;;;;;;;10.30;7.93;;;2.30;99.90;;;;;;5073196;28;20205;-83
2023/01/17 06:10:52;;;;;;;9.10;8.30;;;2.30;99.90;;;;;;5073459;28;20236;-84
2023/01/17 06:13:20;;;;;;;10.68;7.63;;;2.30;99.90;;;;;;5073326;28;20231;-83
2023/01/17 06:15:49;;;;;;;8.38;7.47;;;2.30;99.90;;;;;;5073610;28;20209;-83
2023/01/17 06:18:18;;;;;;;9.10;8.15;;;2.30;99.90;;;;;;5073006;28;20284;-83
2023/01/17 06:20:53;;;;;;;9.20;8.20;;;2.30;99.90;;;;;;5073650;28;20225;-82
2023/01/17 06:23:22;;;;;;;9.38;8.27;;;2.30;99.90;;;;;;5072936;28;20257;-85
2023/01/17 06:25:52;;;;;;;9.07;8.00;;;2.30;99.90;;;;;;5072701;28;20216;-83
2023/01/17 06:28:22;;;;;;;9.27;7.68;;;2.30;99.90;;;;;;5072698;28;20201;-87
2023/01/17 06:30:53;;;;;;;8.20;7.38;;;2.30;99.90;;;;;;5072761;28;20189;-80
2023/01/17 06:33:21;;;;;;;8.48;7.68;;;2.30;99.90;;;;;;5073003;28;20232;-81
2023/01/17 06:35:50;;;;;;;8.27;7.35;;;2.30;99.90;;;;;;5072936;28;20205;-84
2023/01/17 06:38:19;;;;;;;9.65;7.88;;;2.40;99.90;;;;;;5076669;28;20209;-82
2023/01/17 06:40:48;;;;;;;8.07;7.30;;;2.40;99.90;;;;;;5076022;28;20267;-83
2023/01/17 06:43:17;;;;;;;10.80;8.40;;;2.40;99.90;;;;;;5076373;28;20227;-82
2023/01/17 06:45:46;;;;;;;9.93;8.50;;;2.40;99.90;;;;;;5075884;28;20215;-82
2023/01/17 06:48:17;;;;;;;9.02;7.88;;;2.40;99.90;;;;;;5075874;28;20266;-82
2023/01/17 06:50:47;;;;;;;9.60;8.18;;;2.40;99.90;;;;;;5076080;28;20208;-83
2023/01/17 06:53:15;;;;;;;10.07;8.52;;;2.40;99.90;;;;;;5075789;28;20237;-83
2023/01/17 06:55:43;;;;;;;10.00;9.00;;;2.40;99.90;;;;;;5075863;28;20292;-81
2023/01/17 06:58:11;;;;;;;9.57;8.60;;;2.40;99.90;;;;;;5075530;28;20201;-83
2023/01/17 07:00:41;;;;;;;9.23;8.32;;;2.40;99.90;;;;;;5075402;28;20217;-82
2023/01/17 07:03:17;;;;;;;10.70;9.13;;;2.40;99.90;;;;;;5075526;28;20228;-82
2023/01/17 07:05:46;;;;;;;7.95;7.15;;;2.40;99.90;;;;;;5075685;28;20212;-82
2023/01/17 07:08:15;;;;;;;12.55;9.63;;;2.40;99.90;;;;;;5075428;28;20220;-82
2023/01/17 07:10:44;;;;;;;10.55;9.35;;;2.40;99.90;;;;;;5075634;28;20202;-82
2023/01/17 07:13:13;;;;;;;10.73;8.73;;;2.50;99.90;;;;;;5075286;28;20228;-82
2023/01/17 07:15:43;;;;;;;11.07;9.45;;;2.40;99.90;;;;;;5075320;28;20231;-81
2023/01/17 07:18:11;;;;;;;9.27;8.38;;;2.50;99.90;;;;;;5075245;28;20197;-83
2023/01/17 07:20:42;;;;;;;14.05;10.68;;;2.50;99.90;;;;;;5075527;28;20219;-83
2023/01/17 07:35:20;;;;;;;10.05;8.60;;;2.60;99.90;;;;;;5052885;28;20172;-83
2023/01/17 07:42:31;;;;;;;9.85;8.05;;;2.70;99.90;;;;;;5052757;28;20242;-82
2023/01/17 07:48:30;;;;;;;10.27;9.00;;;2.70;99.90;;;;;;5093784;28;20218;-82
2023/01/17 07:50:59;;;;;;;10.02;9.00;;;2.80;99.90;;;;;;5094525;28;20204;-82
2023/01/17 07:54:13;;;;;;;14.40;11.52;;;2.80;99.90;;;;;;5094671;28;20251;-82
2023/01/17 07:57:23;;;;;;;9.88;8.75;;;2.90;99.90;;;;;;5094778;28;20208;-83
2023/01/17 08:00:41;;;;;;;8.70;7.80;;;3.00;99.90;;;;;;4908314;29;20245;-82
2023/01/17 08:03:53;;;;;;;8.57;7.40;;;3.10;99.90;;;;;;4885904;29;20227;-82
2023/01/17 08:07:23;;;;;;;8.48;7.53;;;3.20;99.90;;;;;;4897032;29;20207;-83
2023/01/17 08:09:56;;;;;;;8.25;7.30;;;3.20;99.90;;;;;;4906837;28;20238;-82
2023/01/17 08:12:25;;;;;;;8.05;6.82;;;3.30;99.90;;;;;;4979173;28;20238;-82
2023/01/17 08:14:54;;;;;;;9.45;7.30;;;3.30;99.90;;;;;;4992878;28;20208;-82
2023/01/17 08:17:23;;;;;;;8.73;7.82;;;3.30;99.90;;;;;;4992570;28;20207;-82
2023/01/17 08:19:52;;;;;;;8.27;7.40;;;3.40;99.90;;;;;;4992742;28;20215;-82
2023/01/17 08:22:21;;;;;;;7.88;7.15;;;3.40;99.90;;;;;;4992414;28;20342;-82
2023/01/17 08:24:49;;;;;;;7.25;6.55;;;3.40;99.90;;;;;;4992438;28;20227;-83
2023/01/17 08:27:17;;;;;;;9.02;7.63;;;3.50;99.90;;;;;;4992456;28;20207;-82
2023/01/17 08:29:47;;;;;;;9.38;7.78;;;3.50;99.90;;;;;;4992290;28;20266;-82
2023/01/17 08:32:16;;;;;;;8.95;7.57;;;3.60;99.90;;;;;;4992294;28;20227;-83
2023/01/17 08:34:45;;;;;;;10.48;8.57;;;3.70;99.90;;;;;;4992892;28;20220;-83
2023/01/17 08:37:14;;;;;;;9.77;8.02;;;3.80;99.90;;;;;;5029002;28;20210;-83
2023/01/17 08:39:43;;;;;;;10.70;8.48;;;3.80;99.90;;;;;;5094126;28;20205;-84
2023/01/17 08:42:14;;;;;;;8.20;7.40;;;4.00;99.90;;;;;;5093599;28;20235;-82
2023/01/17 08:44:58;;;;;;;8.88;7.95;;;4.10;99.90;;;;;;5093826;28;20200;-84
2023/01/17 08:47:33;;;;;;;7.85;6.95;;;4.30;99.90;;;;;;5093434;28;20204;-82
2023/01/17 08:51:00;;;;;;;8.90;6.93;;;4.50;99.90;;;;;;5094046;28;20200;-82
2023/01/17 08:53:30;;;;;;;7.18;6.47;;;4.70;99.90;;;;;;5080483;28;20251;-82
2023/01/17 08:55:59;;;;;;;6.53;5.88;;;4.80;99.90;;;;;;5093873;28;20251;-82
2023/01/17 08:58:28;;;;;;;5.85;5.25;;;4.90;99.90;;;;;;5093286;28;20200;-82
2023/01/17 09:01:00;;;;;;;6.43;5.63;;;5.00;99.90;;;;;;5093528;28;20212;-83
2023/01/17 09:03:29;;;;;;;9.40;6.18;;;5.00;99.90;;;;;;5093349;28;20307;-82
2023/01/17 09:06:02;;;;;;;7.82;6.32;;;5.00;99.90;;;;;;5093524;28;20215;-82
2023/01/17 09:08:32;;;;;;;7.38;6.43;;;5.00;99.90;;;;;;5092975;28;20209;-83
2023/01/17 09:11:03;;;;;;;5.80;5.25;;;5.00;99.90;;;;;;5093112;28;20207;-83
2023/01/17 09:13:33;;;;;;;6.55;4.55;;;5.10;99.90;;;;;;5093327;28;20331;-82
2023/01/17 09:16:05;;;;;;;7.75;5.78;;;5.00;99.90;;;;;;5093085;28;20205;-83
2023/01/17 09:18:36;;;;;;;5.07;4.65;;;5.00;99.90;;;;;;5092968;28;20243;-82
2023/01/17 09:21:13;;;;;;;5.05;4.63;;;5.00;99.90;;;;;;5093015;28;20254;-82
2023/01/17 09:23:48;;;;;;;7.18;5.65;;;4.90;99.90;;;;;;5092479;28;20220;-83
2023/01/17 09:26:19;;;;;;;9.18;4.80;;;4.90;99.90;;;;;;5093333;28;20216;-83
2023/01/17 09:28:48;;;;;;;5.18;4.72;;;4.90;99.90;;;;;;5093057;28;20212;-83
2023/01/17 09:31:17;;;;;;;5.18;4.68;;;4.90;99.90;;;;;;5093130;28;20212;-83
2023/01/17 09:33:45;;;;;;;6.35;5.60;;;4.90;99.90;;;;;;5092920;28;20228;-82
2023/01/17 09:36:14;;;;;;;7.25;5.63;;;4.80;99.90;;;;;;5092886;28;20220;-83
2023/01/17 09:38:44;;;;;;;5.72;4.60;;;4.80;99.90;;;;;;5092693;28;20231;-83
2023/01/17 09:41:22;;;;;;;5.15;4.75;;;4.80;99.90;;;;;;5092561;28;20204;-83
2023/01/17 09:43:55;;;;;;;7.45;5.50;;;4.80;99.90;;;;;;5092698;28;20232;-83
2023/01/17 09:46:28;;;;;;;9.65;5.80;;;4.90;99.90;;;;;;5092563;28;20216;-82
2023/01/17 09:49:03;;;;;;;4.85;4.40;;;4.90;99.90;;;;;;5092665;28;20214;-82
2023/01/17 09:51:32;;;;;;;5.38;4.88;;;4.90;99.90;;;;;;5093318;28;20235;-83
2023/01/17 09:54:02;;;;;;;5.10;4.60;;;5.00;99.90;;;;;;5092782;28;20220;-83
2023/01/17 09:56:35;;;;;;;7.70;4.40;;;5.10;99.90;;;;;;5093193;28;20276;-83
2023/01/17 09:59:19;;;;;;;5.78;4.97;;;5.10;99.90;;;;;;5092363;28;20204;-83
2023/01/17 10:01:56;;;;;;;4.55;4.07;;;5.10;99.90;;;;;;5092260;28;20228;-83
2023/01/17 10:04:51;;;;;;;7.57;5.10;;;5.10;99.90;;;;;;5092674;28;20238;-83
2023/01/17 10:07:31;;;;;;;4.88;3.72;;;5.20;99.90;;;;;;5092360;28;20215;-83
2023/01/17 10:10:28;;;;;;;4.85;4.03;;;5.30;99.90;;;;;;5092721;28;20212;-83
2023/01/17 10:13:03;;;;;;;4.35;3.78;;;5.40;99.90;;;;;;5091873;28;20231;-82
2023/01/17 10:15:53;;;;;;;4.55;3.22;;;5.50;99.90;;;;;;5092086;28;20200;-83
2023/01/17 10:18:51;;;;;;;4.43;2.78;;;5.50;99.90;;;;;;5092321;28;20196;-82
2023/01/17 10:21:31;;;;;;;5.57;3.75;;;5.70;99.90;;;;;;5092309;28;20215;-82
2023/01/17 10:24:27;;;;;;;4.43;2.67;;;5.80;99.90;;;;;;5091716;28;20350;-82
2023/01/17 10:27:00;;;;;;;4.65;2.63;;;5.90;99.90;;;;;;5092198;28;20291;-83
2023/01/17 10:29:33;;;;;;;2.45;2.25;;;6.10;99.90;;;;;;5092186;28;20263;-82
2023/01/17 10:32:02;;;;;;;2.90;2.60;;;6.30;99.90;;;;;;5092403;28;20196;-83
2023/01/17 10:34:40;;;;;;;3.58;2.72;;;6.50;99.90;;;;;;5092633;28;20219;-82
2023/01/17 10:37:21;;;;;;;3.08;2.80;;;6.70;99.90;;;;;;5091898;28;20207;-83
2023/01/17 10:39:58;;;;;;;3.10;2.65;;;6.90;99.90;;;;;;5092203;28;20288;-82
2023/01/17 10:42:49;;;;;;;3.63;2.40;;;6.90;99.90;;;;;;5091382;28;20316;-82
2023/01/17 10:46:14;;;;;;;3.13;2.75;;;7.00;99.90;;;;;;5092022;28;20223;-83
2023/01/17 10:49:17;;;;;;;3.25;2.95;;;7.00;99.90;;;;;;5076399;28;20296;-82
2023/01/17 10:52:11;;;;;;;2.70;2.50;;;7.50;99.90;;;;;;5092353;28;20210;-83
2023/01/17 10:55:02;;;;;;;5.00;2.72;;;7.70;99.90;;;;;;5091554;28;20227;-82
2023/01/17 10:57:42;;;;;;;3.80;2.97;;;7.80;99.90;;;;;;5092158;28;20232;-82
2023/01/17 11:00:37;;;;;;;2.20;2.10;;;7.60;99.90;;;;;;5092496;28;20208;-82
2023/01/17 11:16:38;;;;;;;2.08;1.98;;;6.70;99.90;;;;;;5088940;28;20216;-82
2023/01/17 11:19:15;;;;;;;3.05;2.40;;;6.50;99.90;;;;;;5091733;28;20204;-82
2023/01/17 11:37:21;;;;;;;2.08;1.50;;;6.90;99.90;;;;;;4798219;29;20220;-81
2023/01/17 11:39:50;;;;;;;2.22;1.65;;;6.90;99.90;;;;;;4849214;29;20223;-82
2023/01/17 11:56:50;;;;;;;3.00;1.63;;;6.80;99.90;;;;;;4905768;29;20199;-82
2023/01/17 12:03:28;;;;;;;1.63;1.27;;;7.00;99.90;;;;;;4841239;29;20233;-82
2023/01/17 12:10:07;;;;;;;2.70;1.63;;;6.90;99.90;;;;;;4844330;29;20243;-83
2023/01/17 12:15:49;;;;;;;1.00;1.00;;;6.90;99.90;;;;;;4859705;29;20212;-82
2023/01/17 12:19:17;;;;;;;0.93;0.93;;;6.90;99.90;;;;;;4859995;29;20265;-82
2023/01/17 12:25:56;;;;;;;3.13;1.63;;;6.90;99.90;;;;;;4877318;29;20215;-82
2023/01/17 12:55:16;;;;;;;2.38;1.50;;;7.30;99.90;;;;;;4814486;29;20290;-82
2023/01/17 13:08:34;;;;;;;1.52;1.42;;;7.30;99.90;;;;;;5009055;28;20194;-82
2023/01/17 13:11:28;;;;;;;2.80;1.35;;;7.20;99.90;;;;;;4972445;28;20208;-83
2023/01/17 13:17:41;;;;;;;;;;;;;;;;;;;;;
2023/01/17 13:20:21;;;;;;;1.27;1.17;;;7.10;99.90;;;;;;4952967;29;20243;-82
2023/01/17 13:29:58;;;;;;;8.75;2.05;;;7.10;99.90;;;;;;4965464;28;20339;-83
2023/01/17 13:32:55;;;;;;;2.10;2.00;;;7.10;99.90;;;;;;5031004;28;20305;-84
2023/01/17 13:35:40;;;;;;;1.65;1.55;;;7.00;99.90;;;;;;5029509;28;20237;-83
2023/01/17 13:38:35;;;;;;;1.70;1.60;;;7.00;99.90;;;;;;5030973;28;20233;-82
2023/01/17 13:41:16;;;;;;;1.42;1.33;;;7.00;99.90;;;;;;5014651;28;20207;-82
2023/01/17 13:44:20;;;;;;;9.38;1.60;;;6.90;99.90;;;;;;5030474;28;20246;-82
2023/01/17 13:46:55;;;;;;;1.60;1.50;;;6.90;99.90;;;;;;5089169;28;20204;-82
2023/01/17 13:49:42;;;;;;;1.80;1.70;;;6.80;99.90;;;;;;5092746;28;20209;-82
2023/01/17 13:52:30;;;;;;;1.70;1.60;;;6.80;99.90;;;;;;5092825;28;20221;-83
2023/01/17 13:55:01;;;;;;;1.52;1.20;;;6.80;99.90;;;;;;5092756;28;20197;-83
2023/01/17 13:57:40;;;;;;;1.85;1.52;;;6.80;99.90;;;;;;5092342;28;20207;-82
2023/01/17 14:00:42;;;;;;;1.40;1.30;;;6.80;99.90;;;;;;5093012;28;20208;-82
2023/01/17 14:03:12;;;;;;;1.65;1.48;;;6.70;99.90;;;;;;5089718;28;20273;-82
2023/01/17 14:05:48;;;;;;;1.60;1.42;;;6.70;99.90;;;;;;5092672;28;20295;-82
2023/01/17 14:08:19;;;;;;;1.42;1.33;;;6.70;99.90;;;;;;5092240;28;20204;-83
2023/01/17 14:10:49;;;;;;;1.48;1.38;;;6.60;99.90;;;;;;5092564;28;20211;-82
2023/01/17 14:13:34;;;;;;;1.17;1.10;;;6.60;99.90;;;;;;5092133;28;20227;-82
2023/01/17 14:16:05;;;;;;;1.40;1.30;;;6.60;99.90;;;;;;5092313;28;20212;-82
2023/01/17 14:18:40;;;;;;;1.13;1.13;;;6.50;99.90;;;;;;5092291;28;20281;-82
2023/01/17 14:21:12;;;;;;;1.25;1.15;;;6.50;99.90;;;;;;5092511;28;20207;-82
2023/01/17 14:23:49;;;;;;;1.75;1.63;;;6.50;99.90;;;;;;5091917;28;20228;-82
2023/01/17 14:26:46;;;;;;;1.98;1.48;;;6.40;99.90;;;;;;5092253;28;20214;-83
2023/01/17 14:30:03;;;;;;;1.83;1.55;;;6.40;99.90;;;;;;5092899;28;20208;-82
2023/01/17 14:32:34;;;;;;;1.95;1.85;;;6.30;99.90;;;;;;5010389;28;20309;-82
2023/01/17 14:35:07;;;;;;;3.75;2.85;;;6.30;99.90;;;;;;5075560;28;20228;-82
2023/01/17 14:37:45;;;;;;;2.53;2.33;;;6.20;99.90;;;;;;5091960;28;20204;-82
2023/01/17 14:40:18;;;;;;;2.33;2.13;;;6.20;99.90;;;;;;5091937;28;20210;-82
2023/01/17 14:42:48;;;;;;;2.50;2.30;;;6.20;99.90;;;;;;5091932;28;20247;-82
2023/01/17 14:45:28;;;;;;;2.25;2.10;;;6.20;99.90;;;;;;5092144;28;20227;-83
2023/01/17 14:47:57;;;;;;;2.00;1.75;;;6.10;99.90;;;;;;5091966;28;20214;-83
2023/01/17 14:50:29;;;;;;;2.47;2.28;;;6.10;99.90;;;;;;5092076;28;20196;-83
2023/01/17 14:53:24;;;;;;;2.33;2.05;;;6.10;99.90;;;;;;5092082;28;20229;-82
2023/01/17 14:55:55;;;;;;;1.92;1.77;;;6.10;99.90;;;;;;5074098;28;20200;-82
2023/01/17 14:58:26;;;;;;;3.53;2.40;;;6.10;99.90;;;;;;5094915;28;20200;-82
2023/01/17 15:00:58;;;;;;;2.63;2.40;;;6.10;99.90;;;;;;5095429;28;20206;-82
2023/01/17 15:03:28;;;;;;;4.22;2.20;;;6.10;99.90;;;;;;5096130;28;20224;-82
2023/01/17 15:06:10;;;;;;;2.60;2.00;;;6.10;99.90;;;;;;5095910;28;20216;-82
2023/01/17 15:08:38;;;;;;;2.15;2.05;;;6.00;99.90;;;;;;5095787;28;20291;-82
2023/01/17 15:11:15;;;;;;;2.40;2.22;;;6.00;99.90;;;;;;5096037;28;20260;-82
2023/01/17 15:13:48;;;;;;;3.03;2.67;;;6.00;99.90;;;;;;5095299;28;20226;-82
2023/01/17 15:16:23;;;;;;;2.85;2.63;;;6.00;99.90;;;;;;5095719;28;20210;-82
2023/01/17 15:18:53;;;;;;;11.02;2.97;;;5.90;99.90;;;;;;5095456;28;20200;-82
2023/01/17 15:21:26;;;;;;;2.85;2.65;;;6.00;99.90;;;;;;5095580;28;20295;-82
2023/01/17 15:23:56;;;;;;;3.45;2.60;;;5.90;99.90;;;;;;5095575;28;20235;-82
2023/01/17 15:26:27;;;;;;;2.92;2.72;;;5.90;99.90;;;;;;5095825;28;20218;-82
2023/01/17 15:29:02;;;;;;;2.78;2.58;;;5.80;99.90;;;;;;5095208;28;20211;-82
2023/01/17 15:31:42;;;;;;;2.78;2.58;;;5.80;99.90;;;;;;5095532;28;20200;-82
2023/01/17 15:34:26;;;;;;;2.53;2.35;;;5.70;99.90;;;;;;5095132;28;20224;-82
2023/01/17 15:37:03;;;;;;;3.95;3.40;;;5.70;99.90;;;;;;5095478;28;20238;-82
2023/01/17 15:39:35;;;;;;;4.57;3.38;;;5.70;99.90;;;;;;5095535;28;20218;-83
2023/01/17 15:42:12;;;;;;;3.40;3.10;;;5.60;99.90;;;;;;5095175;28;20204;-82
2023/01/17 15:44:46;;;;;;;4.10;3.22;;;5.60;99.90;;;;;;5094590;28;20361;-82
2023/01/17 15:47:28;;;;;;;3.08;2.80;;;5.60;99.90;;;;;;5094967;28;20196;-82
2023/01/17 15:49:58;;;;;;;5.10;3.83;;;5.60;99.90;;;;;;5095337;28;20201;-82
2023/01/17 15:52:30;;;;;;;3.25;2.95;;;5.60;99.90;;;;;;5094855;28;20220;-82
2023/01/17 15:55:12;;;;;;;3.53;3.22;;;5.60;99.90;;;;;;5094232;28;20200;-82
2023/01/17 15:57:51;;;;;;;3.97;3.45;;;5.50;99.90;;;;;;5095083;28;20208;-82
2023/01/17 16:00:25;;;;;;;3.47;3.17;;;5.50;99.90;;;;;;5094817;28;20287;-82
2023/01/17 16:09:43;;;;;;;3.17;2.97;;;5.40;99.90;;;;;;5073936;28;20323;-83
2023/01/17 16:12:12;;;;;;;3.85;3.38;;;5.40;99.90;;;;;;5074255;28;20220;-83
2023/01/17 16:14:40;;;;;;;3.55;3.25;;;5.40;99.90;;;;;;5074147;28;20284;-81
2023/01/17 17:37:55;;;;;;;3.90;3.60;;;4.50;99.90;;;;;;5090476;28;20238;-83
2023/01/17 17:40:23;;;;;;;3.13;2.83;;;4.50;99.90;;;;;;5093184;28;20210;-83
2023/01/17 17:42:51;;;;;;;8.80;3.92;;;4.50;99.90;;;;;;5093466;28;20228;-83
2023/01/17 17:45:19;;;;;;;3.83;3.45;;;4.50;99.90;;;;;;5093449;28;20231;-83
2023/01/17 17:47:48;;;;;;;3.38;3.08;;;4.50;99.90;;;;;;5093300;28;20219;-84
2023/01/17 17:50:16;;;;;;;3.30;3.00;;;4.50;99.90;;;;;;5093688;28;20215;-83
2023/01/17 17:52:44;;;;;;;3.30;3.00;;;4.50;99.90;;;;;;5092609;28;20236;-83
2023/01/17 17:55:17;;;;;;;3.83;3.42;;;4.50;99.90;;;;;;5093102;28;20204;-83
2023/01/17 17:57:48;;;;;;;4.35;2.92;;;4.50;99.90;;;;;;5092624;28;20203;-83
2023/01/17 18:00:21;;;;;;;2.85;2.65;;;4.50;99.90;;;;;;5093379;28;20209;-83
2023/01/17 18:02:50;;;;;;;4.78;3.17;;;4.50;99.90;;;;;;5093334;28;20239;-82
2023/01/17 18:05:19;;;;;;;2.85;2.65;;;4.50;99.90;;;;;;5092744;28;20240;-83
2023/01/17 18:07:48;;;;;;;2.80;2.58;;;4.60;99.90;;;;;;5092415;28;20219;-83
2023/01/17 18:10:19;;;;;;;3.05;2.80;;;4.50;99.90;;;;;;5092898;28;20216;-83
2023/01/17 18:12:49;;;;;;;4.00;3.60;;;4.50;99.90;;;;;;5092952;28;20224;-83
2023/01/17 18:15:19;;;;;;;3.53;3.20;;;4.50;99.90;;;;;;5092686;28;20219;-83
2023/01/17 18:17:48;;;;;;;3.22;2.92;;;4.50;99.90;;;;;;5092079;28;20212;-82
2023/01/17 18:20:22;;;;;;;3.55;3.22;;;4.50;99.90;;;;;;5092721;28;20208;-82
2023/01/17 18:22:53;;;;;;;2.80;2.55;;;4.60;99.90;;;;;;5092850;28;20232;-82
2023/01/17 18:25:23;;;;;;;4.15;3.10;;;4.50;99.90;;;;;;5092700;28;20293;-83
2023/01/17 18:27:52;;;;;;;2.67;2.47;;;4.60;99.90;;;;;;5092660;28;20200;-82
2023/01/17 18:30:21;;;;;;;2.97;2.78;;;4.50;99.90;;;;;;5092823;28;20205;-82